Time;durP1;ratioP1;P1;durP2;ratioP2;P2;SDS_P1;SDS_P2;PMS_P1;PMS_P2;Temp;Humidity;BMP_temperature;BMP_pressure;BME280_temperature;BME280_humidity;BME280_pressure;Samples;Min_cycle;Max_cycle;Signal;HPM_P1;HPM_P2
2021/12/12 00:00:39;;;;;;;16.50;7.35;;;;;;;7.58;46.98;100848.00;5069613;28;20044;-62
2021/12/12 00:03:38;;;;;;;11.23;6.13;;;;;;;7.64;46.57;100855.78;5073889;28;20056;-62
2021/12/12 00:06:29;;;;;;;11.23;6.47;;;;;;;7.62;46.39;100833.59;5053776;28;20432;-62
2021/12/12 00:09:25;;;;;;;16.00;6.90;;;;;;;7.65;47.15;100843.84;5053882;28;20052;-62
2021/12/12 00:12:12;;;;;;;;;;;;;;;7.45;44.87;100844.16;5054093;28;20412;-62
2021/12/12 00:14:57;;;;;;;10.05;4.25;;;;;;;7.61;44.45;100842.84;5092380;22;20619;-77
2021/12/12 00:17:43;;;;;;;4.97;2.17;;;;;;;8.18;39.53;100832.75;5089953;28;20043;-77
2021/12/12 00:20:30;;;;;;;3.47;1.52;;;;;;;7.98;39.54;100830.38;5097674;28;20047;-77
2021/12/12 00:23:15;;;;;;;9.45;3.85;;;;;;;8.14;39.76;100837.97;5100387;28;20047;-78
2021/12/12 00:26:00;;;;;;;5.47;2.55;;;;;;;8.41;39.65;100834.56;5100365;28;20051;-77
2021/12/12 00:28:45;;;;;;;8.38;3.58;;;;;;;8.82;38.63;100837.34;5082612;28;20036;-76
2021/12/12 00:31:30;;;;;;;8.18;2.55;;;;;;;8.83;40.83;100838.16;5072388;28;20058;-77
2021/12/12 00:34:16;;;;;;;5.30;2.88;;;;;;;8.83;39.62;100836.25;5085808;28;20062;-77
2021/12/12 00:37:03;;;;;;;9.93;4.90;;;;;;;8.83;39.15;100830.81;5082988;28;20056;-77
2021/12/12 00:39:54;;;;;;;5.72;2.95;;;;;;;8.92;38.43;100825.50;5080115;28;20560;-77
2021/12/12 00:42:38;;;;;;;5.38;2.67;;;;;;;9.00;39.40;100824.78;5084654;28;20412;-76
2021/12/12 00:45:24;;;;;;;7.35;2.78;;;;;;;9.09;38.43;100822.97;5068196;28;20051;-77
2021/12/12 00:48:09;;;;;;;5.82;3.13;;;;;;;9.21;39.05;100823.25;5079445;28;20043;-78
2021/12/12 00:50:56;;;;;;;10.07;4.60;;;;;;;9.37;40.29;100835.41;5080622;28;20051;-78
2021/12/12 00:53:43;;;;;;;5.32;2.80;;;;;;;9.42;36.81;100829.06;5084473;28;20059;-78
2021/12/12 00:56:28;;;;;;;7.43;2.70;;;;;;;9.42;36.94;100829.06;5079749;28;20047;-78
2021/12/12 00:59:13;;;;;;;5.32;2.47;;;;;;;9.51;37.68;100834.56;5078278;28;20116;-77
2021/12/12 01:01:59;;;;;;;7.53;2.92;;;;;;;9.55;37.75;100830.94;5061255;28;20034;-78
2021/12/12 01:04:47;;;;;;;5.57;2.72;;;;;;;9.62;39.04;100834.03;5079936;28;20062;-77
2021/12/12 01:07:37;;;;;;;3.88;2.00;;;;;;;9.56;36.47;100832.53;5067167;28;20048;-77
2021/12/12 01:10:35;;;;;;;6.28;2.47;;;;;;;9.59;37.98;100831.16;5088221;28;20071;-77
2021/12/12 01:13:21;;;;;;;6.90;2.97;;;;;;;9.69;37.62;100839.88;5090727;28;20050;-79
2021/12/12 01:16:21;;;;;;;2.35;1.52;;;;;;;9.80;33.90;100824.16;5110388;28;20051;-78
2021/12/12 01:19:13;;;;;;;2.03;1.10;;;;;;;9.75;35.10;100843.28;5054001;28;20055;-79
2021/12/12 01:22:02;;;;;;;4.03;2.30;;;;;;;9.77;37.00;100846.47;5084942;28;20043;-80
2021/12/12 01:24:51;;;;;;;3.72;1.60;;;;;;;9.76;37.13;100851.09;5083522;28;20043;-79
2021/12/12 01:27:36;;;;;;;2.45;0.90;;;;;;;9.44;32.82;100859.44;5086796;28;20055;-80
2021/12/12 01:30:22;;;;;;;1.10;0.73;;;;;;;9.08;35.61;100862.06;5068130;28;20048;-78
2021/12/12 01:33:10;;;;;;;3.00;1.33;;;;;;;9.16;35.58;100872.19;5082119;28;20060;-78
2021/12/12 01:35:56;;;;;;;8.25;4.47;;;;;;;9.15;37.81;100892.28;5087303;28;20516;-79
2021/12/12 01:41:44;;;;;;;14.32;7.43;;;;;;;8.47;40.55;100903.84;5091735;28;20046;-77
2021/12/12 01:44:57;;;;;;;14.00;6.45;;;;;;;8.36;40.55;100910.50;5083922;28;20055;-78
2021/12/12 01:47:56;;;;;;;11.80;5.10;;;;;;;8.27;40.52;100895.19;5081560;28;20043;-78
2021/12/12 01:50:49;;;;;;;8.00;5.40;;;;;;;8.17;41.45;100907.00;5089156;28;20059;-77
2021/12/12 01:53:37;;;;;;;12.35;6.05;;;;;;;8.06;42.14;100910.94;5086970;28;20051;-79
2021/12/12 01:56:27;;;;;;;10.98;6.43;;;;;;;8.01;41.31;100922.66;5072474;28;20102;-78
2021/12/12 01:59:12;;;;;;;14.07;7.45;;;;;;;8.03;43.99;100916.94;5066497;28;20046;-78
2021/12/12 02:02:10;;;;;;;18.73;6.22;;;;;;;7.92;45.14;100916.31;5086495;28;20051;-77
2021/12/12 02:05:08;;;;;;;15.00;7.50;;;;;;;7.85;45.69;100925.88;5068241;28;20420;-77
2021/12/12 02:07:59;;;;;;;13.77;7.65;;;;;;;7.73;46.87;100927.09;5071409;28;20047;-76
2021/12/12 02:10:57;;;;;;;15.50;8.25;;;;;;;7.37;47.52;100931.34;5055113;28;20048;-78
2021/12/12 02:13:47;;;;;;;15.40;9.02;;;;;;;7.34;48.72;100923.81;5051618;28;20048;-78
2021/12/12 02:16:32;;;;;;;19.13;9.18;;;;;;;6.82;50.45;100917.31;5063784;28;20402;-78
2021/12/12 02:19:27;;;;;;;12.88;7.03;;;;;;;6.78;51.23;100913.59;5074035;28;20052;-77
2021/12/12 02:22:44;;;;;;;17.65;9.98;;;;;;;6.83;51.92;100910.84;5092834;28;20047;-79
2021/12/12 02:37:50;;;;;;;5.85;2.92;;;;;;;7.52;41.98;100901.38;5082205;28;20054;-77
2021/12/12 02:40:40;;;;;;;3.78;2.03;;;;;;;8.01;40.97;100900.19;5064793;28;20040;-78
2021/12/12 02:43:28;;;;;;;3.45;1.70;;;;;;;8.32;40.59;100901.38;5088917;28;20054;-78
2021/12/12 02:46:17;;;;;;;2.15;1.05;;;;;;;8.51;38.39;100910.28;5090435;28;20068;-79
2021/12/12 02:49:23;;;;;;;3.72;1.48;;;;;;;8.70;40.26;100914.81;5068677;28;20043;-77
2021/12/12 02:52:11;;;;;;;3.55;1.17;;;;;;;8.79;40.05;100935.53;5085055;28;20417;-79
2021/12/12 02:55:00;;;;;;;2.60;1.27;;;;;;;8.64;40.79;100940.41;5086325;28;20067;-79
2021/12/12 02:57:45;;;;;;;2.42;1.25;;;;;;;8.49;40.80;100947.69;5086894;28;20563;-79
2021/12/12 03:00:34;;;;;;;3.75;1.30;;;;;;;8.32;38.98;100946.63;5068387;28;20123;-79
2021/12/12 03:03:19;;;;;;;1.90;0.95;;;;;;;8.28;39.87;100949.06;5073595;28;20043;-78
2021/12/12 03:06:10;;;;;;;1.33;1.02;;;;;;;8.17;39.44;100953.03;5084070;28;20044;-77
2021/12/12 03:09:17;;;;;;;2.10;1.08;;;;;;;8.03;40.13;100950.25;5086314;28;20055;-77
2021/12/12 03:12:16;;;;;;;4.40;1.98;;;;;;;8.05;38.70;100950.78;5066031;28;20052;-80
2021/12/12 03:15:25;;;;;;;3.88;1.05;;;;;;;8.01;38.33;100936.22;5084077;28;20067;-79
2021/12/12 03:18:23;;;;;;;4.07;1.38;;;;;;;8.10;40.85;100949.88;5074078;28;20051;-79
2021/12/12 03:21:16;;;;;;;1.80;0.85;;;;;;;8.17;38.95;100950.34;5087793;28;20039;-78
2021/12/12 03:24:08;;;;;;;0.82;0.63;;;;;;;8.30;39.75;100948.81;5076841;28;20404;-78
2021/12/12 03:26:57;;;;;;;0.82;0.75;;;;;;;8.35;39.97;100938.69;5085430;28;20047;-78
2021/12/12 03:29:44;;;;;;;1.50;0.52;;;;;;;8.47;37.70;100935.56;5086674;28;20078;-78
2021/12/12 03:32:28;;;;;;;0.55;0.40;;;;;;;8.64;37.04;100937.69;5081912;28;20047;-78
2021/12/12 03:35:15;;;;;;;1.55;0.52;;;;;;;8.76;34.97;100940.75;5091294;28;20055;-77
2021/12/12 03:38:00;;;;;;;2.22;1.00;;;;;;;8.89;38.65;100943.50;5103814;28;20055;-78
2021/12/12 03:40:45;;;;;;;2.00;0.98;;;;;;;8.88;41.71;100950.03;5080647;28;20047;-78
2021/12/12 03:43:31;;;;;;;10.88;5.13;;;;;;;8.55;41.44;100962.78;5084014;28;20051;-78
2021/12/12 03:46:15;;;;;;;15.57;6.80;;;;;;;8.27;50.36;100977.28;5085393;28;20047;-80
2021/12/12 03:49:01;;;;;;;9.75;5.47;;;;;;;7.43;46.76;100978.88;5076137;28;20060;-79
2021/12/12 03:51:46;;;;;;;13.15;8.57;;;;;;;7.14;47.83;100986.22;5090090;28;20051;-80
2021/12/12 03:54:32;;;;;;;10.30;6.32;;;;;;;6.97;49.05;100985.84;5087400;28;20048;-79
2021/12/12 03:57:19;;;;;;;13.13;8.00;;;;;;;6.97;50.32;100986.66;5091992;28;20048;-79
2021/12/12 04:00:09;;;;;;;19.50;8.80;;;;;;;6.93;49.37;100993.72;5090499;28;20532;-80
2021/12/12 04:02:55;;;;;;;26.30;10.38;;;;;;;6.89;50.13;101000.78;5092751;28;20047;-80
2021/12/12 04:05:48;;;;;;;16.42;9.07;;;;;;;6.66;51.63;100996.09;5106432;28;20039;-80
2021/12/12 04:08:36;;;;;;;15.98;9.02;;;;;;;6.69;52.40;100993.66;5094280;28;20051;-79
2021/12/12 04:11:28;;;;;;;20.05;9.98;;;;;;;6.71;52.28;100987.94;5097445;28;20418;-78
2021/12/12 04:14:13;;;;;;;16.15;8.77;;;;;;;6.63;52.17;100986.69;5105876;28;20424;-79
2021/12/12 04:17:02;;;;;;;10.75;7.40;;;;;;;6.69;51.86;100995.56;5104003;28;20051;-80
2021/12/12 04:19:50;;;;;;;15.65;9.20;;;;;;;6.54;52.05;101020.78;5083892;28;20098;-78
2021/12/12 04:22:35;;;;;;;17.65;10.27;;;;;;;6.59;52.17;101028.06;5087947;28;20043;-77
2021/12/12 04:25:21;;;;;;;16.10;8.73;;;;;;;6.53;52.97;101035.38;5070598;28;20063;-77
2021/12/12 04:28:06;;;;;;;19.13;10.27;;;;;;;6.56;52.54;101034.81;5069099;28;20052;-79
2021/12/12 04:30:51;;;;;;;13.90;7.35;;;;;;;6.43;53.54;101040.84;5086561;28;20059;-78
2021/12/12 04:33:37;;;;;;;16.45;8.40;;;;;;;6.32;52.96;101044.69;5084185;28;20055;-79
2021/12/12 04:36:28;;;;;;;17.85;10.70;;;;;;;6.59;53.40;101049.66;5088198;28;20055;-77
2021/12/12 04:39:19;;;;;;;19.30;10.40;;;;;;;6.52;53.07;101041.88;5096499;28;20063;-79
2021/12/12 04:42:17;;;;;;;16.23;9.82;;;;;;;6.41;54.64;101053.81;5086396;28;20051;-80
2021/12/12 04:45:41;;;;;;;19.15;10.07;;;;;;;6.13;54.98;101047.22;5082291;28;20056;-79
2021/12/12 04:52:02;;;;;;;21.17;9.20;;;;;;;5.80;57.13;101080.22;5083763;28;20043;-77
2021/12/12 04:55:00;;;;;;;18.00;8.98;;;;;;;5.99;55.72;101087.47;5085746;28;20416;-78
2021/12/12 04:58:07;;;;;;;15.85;9.38;;;;;;;6.01;54.71;101088.03;5083181;28;20404;-76
2021/12/12 05:01:02;;;;;;;20.88;10.60;;;;;;;6.19;54.61;101093.91;5069352;28;20055;-77
2021/12/12 05:03:52;;;;;;;19.65;11.95;;;;;;;6.16;55.63;101094.44;5104322;28;20044;-78
2021/12/12 05:06:43;;;;;;;21.02;13.27;;;;;;;6.20;53.86;101100.91;5082171;28;20570;-78
2021/12/12 05:09:31;;;;;;;22.20;12.73;;;;;;;5.81;53.66;101098.84;5078871;28;20040;-79
2021/12/12 05:12:31;;;;;;;19.60;11.05;;;;;;;6.11;52.71;101106.06;5077676;28;20049;-78
2021/12/12 05:15:20;;;;;;;19.17;10.95;;;;;;;5.93;53.72;101115.59;5088307;28;20039;-78
2021/12/12 05:18:15;;;;;;;20.27;11.10;;;;;;;5.99;54.09;101117.19;5075779;28;20456;-78
2021/12/12 05:21:11;;;;;;;18.88;11.00;;;;;;;5.98;53.97;101123.69;5061179;28;20048;-78
2021/12/12 05:24:00;;;;;;;20.58;11.00;;;;;;;5.91;56.75;101122.34;5070089;28;20040;-78
2021/12/12 05:26:55;;;;;;;16.25;11.65;;;;;;;6.05;55.01;101125.25;5066194;28;20032;-78
2021/12/12 05:29:45;;;;;;;20.80;11.07;;;;;;;5.96;53.32;101123.13;5083692;28;20047;-78
2021/12/12 05:32:32;;;;;;;17.85;11.63;;;;;;;5.98;51.49;101131.78;5070885;28;20036;-77
2021/12/12 05:35:21;;;;;;;27.05;13.23;;;;;;;5.58;55.17;101129.13;5073819;28;20118;-78
2021/12/12 05:38:08;;;;;;;22.15;12.38;;;;;;;5.34;57.24;101130.75;5075883;28;20037;-76
2021/12/12 05:40:53;;;;;;;19.60;11.63;;;;;;;5.40;57.15;101137.75;5085772;28;20044;-77
2021/12/12 05:43:38;;;;;;;18.75;8.35;;;;;;;5.73;53.28;101139.91;5091219;28;20051;-78
2021/12/12 05:46:25;;;;;;;21.77;11.23;;;;;;;5.75;53.56;101143.13;5068956;28;20050;-77
2021/12/12 05:49:11;;;;;;;17.02;9.50;;;;;;;5.63;54.35;101129.13;5090170;28;20107;-78
2021/12/12 05:51:55;;;;;;;18.73;10.02;;;;;;;5.40;57.31;101140.44;5084679;28;20064;-76
2021/12/12 05:54:41;;;;;;;15.38;9.20;;;;;;;5.40;56.62;101138.56;5082349;28;20189;-77
2021/12/12 05:57:27;;;;;;;15.63;9.60;;;;;;;5.28;59.03;101142.63;5069049;28;20097;-77
2021/12/12 06:00:16;;;;;;;15.63;8.95;;;;;;;5.54;56.02;101160.41;5064041;28;20048;-78
2021/12/12 06:03:06;;;;;;;16.05;9.40;;;;;;;5.50;54.97;101167.41;5087299;28;20059;-75
2021/12/12 06:05:54;;;;;;;21.75;11.15;;;;;;;5.19;54.84;101171.97;5052891;28;20043;-76
2021/12/12 06:08:41;;;;;;;42.97;14.48;;;;;;;4.88;59.07;101162.22;5051835;28;20037;-77
2021/12/12 06:11:29;;;;;;;23.85;10.63;;;;;;;5.00;56.39;101187.06;5078365;28;20042;-76
2021/12/12 06:14:16;;;;;;;33.78;11.63;;;;;;;4.88;57.73;101181.91;5110008;22;20047;-78
2021/12/12 06:17:02;;;;;;;20.92;10.10;;;;;;;4.96;56.50;101210.22;5109823;27;20047;-77
2021/12/12 06:19:47;;;;;;;20.38;9.77;;;;;;;4.92;58.60;101201.88;5087520;28;20043;-77
2021/12/12 06:22:32;;;;;;;20.92;7.45;;;;;;;4.89;56.44;101207.78;5112647;28;20511;-77
2021/12/12 06:25:17;;;;;;;19.85;8.60;;;;;;;4.64;55.16;101205.00;5078382;28;20416;-77
2021/12/12 06:28:08;;;;;;;9.77;7.03;;;;;;;4.81;54.43;101205.59;5090652;28;20051;-77
2021/12/12 06:30:54;;;;;;;24.38;13.25;;;;;;;4.82;55.71;101209.13;5091483;28;20067;-78
2021/12/12 06:33:40;;;;;;;16.73;9.35;;;;;;;4.93;54.97;101216.94;5091746;28;20044;-78
2021/12/12 06:36:24;;;;;;;17.13;8.10;;;;;;;5.16;55.34;101218.34;5091908;28;20055;-77
2021/12/12 06:39:11;;;;;;;13.80;6.80;;;;;;;5.26;55.83;101223.75;5090256;28;20055;-78
2021/12/12 06:41:57;;;;;;;14.35;7.68;;;;;;;5.34;54.77;101228.63;5088115;28;20051;-77
2021/12/12 06:44:42;;;;;;;12.57;7.05;;;;;;;5.20;54.28;101232.09;5076579;28;20543;-77
2021/12/12 06:47:28;;;;;;;15.52;7.63;;;;;;;5.12;53.71;101236.97;5062014;28;20420;-77
2021/12/12 06:50:13;;;;;;;15.45;8.45;;;;;;;4.88;54.97;101246.56;5091243;28;20043;-78
2021/12/12 06:52:59;;;;;;;8.48;5.40;;;;;;;4.89;55.16;101245.50;5092561;28;20419;-78
2021/12/12 06:55:46;;;;;;;11.40;7.20;;;;;;;4.89;54.96;101242.81;5076081;28;20047;-78
2021/12/12 06:58:32;;;;;;;17.58;8.10;;;;;;;4.94;54.38;101240.13;5089977;28;20051;-78
2021/12/12 07:01:22;;;;;;;14.13;7.78;;;;;;;5.03;55.11;101249.31;5090566;28;20443;-78
2021/12/12 07:04:09;;;;;;;15.52;7.65;;;;;;;4.81;54.79;101251.41;5090542;28;20101;-78
2021/12/12 07:06:58;;;;;;;16.73;9.00;;;;;;;4.82;54.57;101247.66;5092250;28;20051;-78
2021/12/12 07:09:45;;;;;;;15.45;7.97;;;;;;;4.89;54.60;101258.97;5092077;28;20043;-77
2021/12/12 07:12:32;;;;;;;11.52;6.57;;;;;;;5.07;53.92;101271.16;5078791;28;20043;-77
2021/12/12 07:15:17;;;;;;;15.88;7.72;;;;;;;5.03;54.32;101281.66;5094767;28;20524;-78
2021/12/12 07:18:07;;;;;;;11.35;5.90;;;;;;;4.86;56.29;101269.47;5067163;28;20051;-77
2021/12/12 07:20:55;;;;;;;15.05;7.97;;;;;;;4.92;56.16;101280.00;5094081;28;20047;-78
2021/12/12 07:23:42;;;;;;;27.65;9.52;;;;;;;5.02;55.36;101287.31;5092192;28;20050;-78
2021/12/12 07:26:28;;;;;;;19.90;9.90;;;;;;;5.22;54.67;101282.00;5091827;28;20046;-77
2021/12/12 07:29:13;;;;;;;15.80;7.72;;;;;;;5.26;53.85;101287.66;5074058;28;20117;-78
2021/12/12 07:31:58;;;;;;;13.93;6.78;;;;;;;5.06;54.53;101291.91;5071584;28;20115;-77
2021/12/12 07:34:42;;;;;;;11.65;6.40;;;;;;;4.87;56.43;101287.25;5077859;28;20523;-77
2021/12/12 07:37:29;;;;;;;11.07;6.50;;;;;;;4.96;55.04;101291.88;5102936;28;20055;-78
2021/12/12 07:40:14;;;;;;;23.30;9.48;;;;;;;5.08;54.65;101303.22;5098521;28;20063;-78
2021/12/12 07:42:59;;;;;;;21.55;9.30;;;;;;;5.13;55.33;101315.91;5068552;28;20503;-77
2021/12/12 07:45:44;;;;;;;14.48;7.10;;;;;;;5.03;54.86;101319.38;5094753;28;20051;-78
2021/12/12 07:48:29;;;;;;;12.32;6.68;;;;;;;5.05;56.50;101321.81;5087991;28;20439;-78
2021/12/12 07:51:15;;;;;;;11.05;6.43;;;;;;;5.07;57.57;101315.09;5095027;28;20047;-78
2021/12/12 07:54:02;;;;;;;28.27;8.45;;;;;;;4.82;56.98;101314.19;5093474;28;20511;-78
2021/12/12 07:56:48;;;;;;;19.35;9.73;;;;;;;5.29;55.00;101316.78;5093221;28;20055;-77
2021/12/12 07:59:35;;;;;;;15.73;7.95;;;;;;;5.20;54.02;101321.06;5081734;28;20050;-78
2021/12/12 08:02:23;;;;;;;16.92;8.27;;;;;;;5.13;55.78;101322.13;5093817;28;20049;-78
2021/12/12 08:05:12;;;;;;;16.40;8.50;;;;;;;5.05;57.21;101322.63;5076072;28;20051;-78
2021/12/12 08:08:04;;;;;;;18.92;8.75;;;;;;;5.21;54.93;101322.69;5058952;28;20043;-79
2021/12/12 08:10:49;;;;;;;15.23;7.70;;;;;;;5.35;53.94;101331.91;5085120;28;20405;-78
2021/12/12 08:13:35;;;;;;;14.80;8.48;;;;;;;5.73;53.63;101338.75;5087132;28;20047;-78
2021/12/12 08:16:22;;;;;;;20.27;7.93;;;;;;;5.71;53.75;101341.72;5099350;28;20042;-78
2021/12/12 08:19:07;;;;;;;14.65;7.28;;;;;;;5.58;55.29;101347.63;5090737;28;20039;-78
2021/12/12 08:21:59;;;;;;;12.18;6.78;;;;;;;5.53;53.80;101345.72;5075202;28;20054;-77
2021/12/12 08:24:44;;;;;;;16.63;6.63;;;;;;;5.63;52.69;101347.63;5082555;28;20058;-77
2021/12/12 08:27:29;;;;;;;8.10;4.50;;;;;;;5.56;52.83;101336.28;5096402;28;20436;-77
2021/12/12 08:30:16;;;;;;;10.38;4.88;;;;;;;5.83;51.58;101347.66;5097594;28;20542;-78
2021/12/12 08:33:04;;;;;;;13.27;7.03;;;;;;;6.05;52.01;101346.63;5094493;28;20071;-78
2021/12/12 08:35:50;;;;;;;11.98;6.57;;;;;;;6.08;51.90;101344.22;5092631;28;20409;-78
2021/12/12 08:38:35;;;;;;;11.95;5.45;;;;;;;6.05;53.51;101352.81;5086432;28;20047;-78
2021/12/12 08:41:20;;;;;;;15.25;7.10;;;;;;;6.17;52.75;101355.28;5089405;28;20050;-78
2021/12/12 08:44:07;;;;;;;9.35;5.15;;;;;;;6.50;51.76;101362.84;5090088;28;20070;-78
2021/12/12 08:46:54;;;;;;;15.85;7.18;;;;;;;6.79;52.69;101369.25;5088759;28;20123;-78
2021/12/12 08:49:41;;;;;;;14.93;8.25;;;;;;;6.50;54.14;101362.84;5097670;28;20062;-78
2021/12/12 08:52:35;;;;;;;17.95;9.13;;;;;;;6.27;54.16;101374.19;5100109;28;20431;-78
2021/12/12 08:55:31;;;;;;;20.67;9.00;;;;;;;6.29;53.93;101369.31;5076779;28;20043;-78
2021/12/12 08:58:20;;;;;;;21.85;9.38;;;;;;;6.32;54.50;101376.88;5089133;28;20047;-84
2021/12/12 09:01:09;;;;;;;13.25;8.20;;;;;;;6.52;54.73;101379.56;5104832;28;20063;-79
2021/12/12 09:03:57;;;;;;;14.60;7.28;;;;;;;6.05;56.19;101387.94;5088988;28;20035;-82
2021/12/12 09:06:52;;;;;;;18.73;9.80;;;;;;;5.79;57.13;101383.56;5098964;28;20054;-83
2021/12/12 09:09:58;;;;;;;;;;;;;;;5.71;57.20;101384.06;5108161;28;20047;-81
2021/12/12 09:12:53;;;;;;;17.30;7.57;;;;;;;5.66;57.07;101381.34;5108035;28;19924;-78
2021/12/12 09:15:54;;;;;;;12.68;7.55;;;;;;;5.57;58.70;101383.75;5074442;28;20043;-80
2021/12/12 09:18:57;;;;;;;26.05;11.27;;;;;;;5.44;59.85;101395.84;5080748;28;20047;-80
2021/12/12 09:21:50;;;;;;;20.17;10.35;;;;;;;5.65;58.39;101395.91;5098302;28;20039;-79
2021/12/12 09:25:01;;;;;;;19.35;9.63;;;;;;;5.65;57.58;101407.50;5098530;28;20043;-79
2021/12/12 09:27:52;;;;;;;17.58;10.05;;;;;;;5.53;58.03;101405.06;5070381;28;20428;-79
2021/12/12 09:30:37;;;;;;;19.38;9.98;;;;;;;5.64;58.34;101410.50;5077370;28;20043;-78
2021/12/12 09:33:29;;;;;;;20.52;10.52;;;;;;;6.00;57.34;101414.91;5088512;28;20067;-79
2021/12/12 09:36:18;;;;;;;16.88;9.82;;;;;;;5.96;57.43;101409.25;5085926;28;20041;-78
2021/12/12 09:39:19;;;;;;;19.10;10.13;;;;;;;6.05;58.27;101403.31;5093312;28;20044;-80
2021/12/12 09:42:29;;;;;;;22.13;10.63;;;;;;;6.22;58.30;101411.97;5118817;28;20062;-79
2021/12/12 09:45:48;;;;;;;20.50;11.55;;;;;;;6.42;58.46;101399.28;5087979;28;20036;-78
2021/12/12 09:52:21;;;;;;;34.47;10.18;;;;;;;6.75;58.35;101397.94;5099855;28;20043;-78
2021/12/12 09:55:10;;;;;;;20.88;11.23;;;;;;;6.79;57.59;101399.00;5094211;28;20047;-78
2021/12/12 09:58:02;;;;;;;20.02;11.73;;;;;;;6.98;57.93;101382.19;5096098;28;20047;-78
2021/12/12 10:01:21;;;;;;;28.17;11.95;;;;;;;7.11;57.99;101379.69;5084057;28;20052;-78
2021/12/12 10:04:29;;;;;;;31.90;12.98;;;;;;;7.22;58.63;101367.75;5082942;28;20032;-78
2021/12/12 10:07:24;;;;;;;33.80;13.10;;;;;;;7.22;59.89;101373.16;5102780;28;20055;-78
2021/12/12 10:10:15;;;;;;;25.67;12.70;;;;;;;7.42;59.54;101377.69;5105599;28;20043;-78
2021/12/12 10:13:13;;;;;;;27.15;13.82;;;;;;;7.45;60.46;101368.22;5095276;28;20044;-78
2021/12/12 10:16:04;;;;;;;35.42;13.00;;;;;;;7.55;59.99;101379.81;5094246;28;20436;-78
2021/12/12 10:19:16;;;;;;;18.70;10.32;;;;;;;7.90;58.32;101377.97;5098589;28;20043;-78
2021/12/12 10:22:35;;;;;;;21.90;11.45;;;;;;;8.06;57.02;101380.31;5085844;28;20028;-77
2021/12/12 10:25:41;;;;;;;24.23;11.27;;;;;;;7.97;55.90;101381.19;5084431;28;20039;-78
2021/12/12 10:28:54;;;;;;;20.48;10.98;;;;;;;7.97;57.70;101378.47;5101211;28;20510;-78
2021/12/12 10:31:48;;;;;;;31.05;12.57;;;;;;;8.05;58.19;101380.56;5097044;28;20036;-78
2021/12/12 10:34:41;;;;;;;19.75;11.20;;;;;;;7.98;59.42;101388.19;5063349;28;20103;-79
2021/12/12 10:37:33;;;;;;;18.05;10.07;;;;;;;7.92;60.03;101386.63;5076439;28;20051;-78
2021/12/12 10:40:38;;;;;;;13.75;9.65;;;;;;;8.18;58.26;101379.91;5098535;28;20052;-78
2021/12/12 10:43:42;;;;;;;32.28;11.63;;;;;;;8.84;58.65;101392.91;5070899;28;20043;-77
2021/12/12 10:46:33;;;;;;;17.67;10.27;;;;;;;8.87;58.96;101385.03;5102045;28;20491;-76
2021/12/12 10:49:31;;;;;;;20.58;10.38;;;;;;;8.85;58.71;101389.13;5111153;28;20051;-76
2021/12/12 10:52:25;;;;;;;18.05;10.82;;;;;;;8.99;59.12;101384.63;5096082;28;20039;-76
2021/12/12 10:55:17;;;;;;;23.05;10.07;;;;;;;8.76;59.04;101377.28;5108310;28;20438;-75
2021/12/12 10:58:27;;;;;;;19.52;10.80;;;;;;;8.73;59.86;101378.69;5103836;28;20420;-76
2021/12/12 11:01:24;;;;;;;18.90;10.90;;;;;;;8.57;60.70;101382.63;5110846;28;20040;-76
2021/12/12 11:04:23;;;;;;;22.40;10.63;;;;;;;8.59;61.64;101388.56;5111993;28;20040;-77
2021/12/12 11:07:27;;;;;;;22.70;12.63;;;;;;;8.38;60.19;101384.44;5094159;28;20044;-75
2021/12/12 11:55:01;;;;;;;10.73;5.25;;;;;;;10.36;38.23;101369.19;5459300;22;20059;-79
2021/12/12 11:57:58;;;;;;;3.03;1.30;;;;;;;10.44;37.04;101365.78;5095058;28;20048;-78
2021/12/12 12:00:49;;;;;;;0.85;0.52;;;;;;;10.47;36.05;101366.00;5089977;28;20067;-78
2021/12/12 12:04:11;;;;;;;2.15;0.88;;;;;;;10.55;35.62;101365.31;5091342;28;20063;-79
2021/12/12 12:06:59;;;;;;;2.20;1.13;;;;;;;10.56;36.70;101366.13;5117706;22;20058;-80
2021/12/12 12:10:13;;;;;;;1.50;0.60;;;;;;;10.68;36.90;101367.25;5100237;27;20051;-80
2021/12/12 12:13:43;;;;;;;1.73;1.13;;;;;;;10.75;37.90;101366.06;5100616;28;20047;-79
2021/12/12 12:16:27;;;;;;;3.97;2.00;;;;;;;10.79;36.68;101356.19;5094805;28;20055;-77
2021/12/12 12:19:35;;;;;;;7.00;1.63;;;;;;;10.89;36.14;101356.81;5083231;28;20051;-77
2021/12/12 12:22:48;;;;;;;2.25;0.98;;;;;;;10.99;38.11;101345.72;5078678;28;20047;-78
2021/12/12 12:29:02;;;;;;;1.73;1.13;;;;;;;11.06;36.07;101346.13;5099059;28;20059;-80
2021/12/12 12:32:21;;;;;;;21.38;1.95;;;;;;;11.53;37.71;101350.28;5100140;27;20051;-80
2021/12/12 12:35:44;;;;;;;2.28;1.10;;;;;;;11.27;34.19;101340.28;5086094;28;20105;-81
2021/12/12 12:39:07;;;;;;;3.17;0.65;;;;;;;11.25;33.71;101342.47;5078212;28;20051;-80
2021/12/12 12:42:33;;;;;;;5.60;1.73;;;;;;;11.28;35.24;101352.75;5089727;28;20117;-80
2021/12/12 12:45:37;;;;;;;;;;;;;;;11.33;35.94;101349.91;5097325;28;20683;-83
2021/12/12 12:48:52;;;;;;;4.43;1.90;;;;;;;11.44;37.56;101346.69;5112934;28;19911;-83
2021/12/12 12:51:46;;;;;;;3.25;1.73;;;;;;;11.50;38.60;101353.66;5111675;27;20522;-81
2021/12/12 12:54:42;;;;;;;4.57;2.92;;;;;;;11.59;38.63;101349.06;5100510;28;20043;-83
2021/12/12 12:57:37;;;;;;;3.83;2.55;;;;;;;11.63;39.01;101337.59;5112615;28;20062;-80
2021/12/12 13:00:28;;;;;;;8.73;3.33;;;;;;;11.68;40.67;101346.44;5075766;28;20074;-84
2021/12/12 13:03:24;;;;;;;8.95;3.10;;;;;;;11.69;40.72;101353.50;5103204;28;20039;-82
2021/12/12 13:06:47;;;;;;;5.18;3.15;;;;;;;11.78;41.21;101343.53;5091704;27;20437;-81
2021/12/12 13:09:57;;;;;;;8.13;3.38;;;;;;;11.84;41.03;101346.91;5094757;27;20470;-79
2021/12/12 13:12:57;;;;;;;6.22;2.92;;;;;;;11.87;40.13;101343.59;5090067;27;20043;-78
2021/12/12 13:16:07;;;;;;;5.60;3.17;;;;;;;11.89;40.04;101336.69;5083628;27;20065;-79
2021/12/12 13:19:11;;;;;;;8.10;2.65;;;;;;;12.00;40.72;101340.00;5111846;27;20050;-80
2021/12/12 13:22:05;;;;;;;11.68;3.38;;;;;;;12.10;39.08;101330.75;5070667;28;20419;-83
2021/12/12 13:25:05;;;;;;;5.18;2.58;;;;;;;12.06;37.27;101329.78;5104540;28;20031;-83
2021/12/12 13:31:20;;;;;;;6.82;2.67;;;;;;;12.24;36.83;101329.56;5141461;27;20125;-82
2021/12/12 13:34:32;;;;;;;3.78;2.55;;;;;;;12.36;36.85;101331.75;5107634;27;20054;-83
2021/12/12 13:37:39;;;;;;;7.55;3.88;;;;;;;12.41;36.52;101332.41;5089959;28;20415;-81
2021/12/12 13:40:31;;;;;;;8.05;3.35;;;;;;;12.47;35.50;101333.09;5081228;28;20035;-82
2021/12/12 13:43:34;;;;;;;5.18;3.28;;;;;;;12.55;36.00;101332.31;5082392;28;20054;-83
2021/12/12 13:46:55;;;;;;;5.32;2.40;;;;;;;12.60;35.33;101329.47;5097030;28;20043;-81
2021/12/12 13:50:07;;;;;;;3.45;2.22;;;;;;;12.68;35.31;101336.09;5106063;28;20042;-83
2021/12/12 13:53:13;;;;;;;4.10;1.77;;;;;;;12.58;34.48;101336.38;5079502;28;20043;-81
2021/12/12 13:56:17;;;;;;;;;;;;;;;12.60;34.94;101334.91;5110175;28;20055;-82
2021/12/12 13:59:13;;;;;;;10.65;5.30;;;;;;;12.61;34.61;101338.47;5097476;28;19911;-82
2021/12/12 14:02:04;;;;;;;7.22;3.60;;;;;;;12.68;35.09;101342.34;5097418;28;20032;-81
2021/12/12 14:04:50;;;;;;;11.13;4.80;;;;;;;12.67;34.32;101348.94;5088204;28;20035;-82
2021/12/12 14:07:46;;;;;;;6.68;2.83;;;;;;;12.71;33.92;101347.19;5101154;28;20051;-81
2021/12/12 14:10:49;;;;;;;3.22;2.00;;;;;;;12.66;34.30;101344.59;5099231;28;20525;-80
2021/12/12 14:13:47;;;;;;;5.65;3.35;;;;;;;12.64;33.46;101355.03;5100750;28;20406;-81
2021/12/12 14:16:40;;;;;;;4.18;3.00;;;;;;;12.68;33.57;101364.19;5098645;28;20066;-83
2021/12/12 14:19:35;;;;;;;6.53;2.45;;;;;;;12.67;33.40;101359.84;5087654;28;20051;-82
2021/12/12 14:22:20;;;;;;;6.30;3.92;;;;;;;12.65;33.55;101362.06;5098211;28;20051;-83
2021/12/12 14:25:08;;;;;;;5.05;3.17;;;;;;;12.59;33.66;101359.81;5102791;28;20046;-80
2021/12/12 14:27:57;;;;;;;5.07;3.35;;;;;;;12.68;33.90;101374.28;5099122;28;20054;-80
2021/12/12 14:30:45;;;;;;;5.75;3.20;;;;;;;12.59;32.98;101368.00;5099232;28;20506;-80
2021/12/12 14:33:38;;;;;;;8.20;4.07;;;;;;;12.67;33.69;101368.03;5112676;28;20093;-80
2021/12/12 14:36:27;;;;;;;3.35;2.30;;;;;;;12.61;33.22;101368.47;5112864;28;20410;-80
2021/12/12 14:39:15;;;;;;;5.80;2.70;;;;;;;12.47;33.66;101368.56;5098197;28;20054;-81